Weather at Aero Country Airport

Public forecast

Using degrees Fahrenheit for public forecast. Weather courtesy of forecast.io.

Closest aviation weather report (METAR) to Aero Country Airport

Closest report is McKinney National Airport, 7.8 nm (14.5 km) ESE.

2024/05/29 16:53 (retrieved 33 minutes ago)

KTKI 291653Z 12007KT 100V170 10SM FEW024 27/19 A3009 RMK AO2 SLP184 T02670189

Closest aviation forecast (TAF) to Aero Country Airport

Closest forecast is Dallas Love Field, 22.4 nm (41.5 km) SSW.

2024/05/29 15:10 Ammendment (retrieved 2 hours ago)

TAF AMD KDAL 291508Z 2915/3012 12008KT P6SM BKN060 FM301000 15008KT P6SM VCSH BKN017